createdAt,value
2023-04-09T00:03:50.790Z,97585.34
2023-04-09T00:09:11.603Z,97582.91
2023-04-09T00:14:32.424Z,97588.81
2023-04-09T00:19:53.104Z,97588.16
2023-04-09T00:25:14.060Z,97589.66
2023-04-09T00:30:35.027Z,97576.00
2023-04-09T00:35:55.688Z,97587.41
2023-04-09T00:41:18.328Z,97581.41
2023-04-09T00:46:39.649Z,97588.50
2023-04-09T00:52:01.313Z,97581.31
2023-04-09T00:57:22.530Z,97584.31
2023-04-09T01:02:43.962Z,97580.16
2023-04-09T01:08:23.076Z,97566.38
2023-04-09T01:14:23.172Z,97570.38
2023-04-09T01:20:23.120Z,97568.84
2023-04-09T01:26:04.856Z,97569.16
2023-04-09T01:31:39.058Z,97583.75
2023-04-09T01:37:03.530Z,97590.50
2023-04-09T01:42:24.928Z,97575.19
2023-04-09T01:47:46.793Z,97582.16
2023-04-09T01:53:08.187Z,97586.06
2023-04-09T01:58:29.501Z,97578.44
2023-04-09T02:04:20.765Z,97587.19
2023-04-09T02:09:42.120Z,97586.94
2023-04-09T02:15:04.215Z,97591.84
2023-04-09T02:20:24.880Z,97598.53
2023-04-09T02:25:46.022Z,97595.84
2023-04-09T02:31:07.217Z,97593.72
2023-04-09T02:36:28.288Z,97586.97
2023-04-09T02:41:49.622Z,97579.81
2023-04-09T02:47:10.355Z,97577.06
2023-04-09T02:52:32.729Z,97577.97
2023-04-09T02:57:53.406Z,97573.72
2023-04-09T03:03:14.281Z,97575.22
2023-04-09T03:08:35.643Z,97575.38
2023-04-09T03:13:56.812Z,97581.81
2023-04-09T03:19:17.757Z,97576.09
2023-04-09T03:24:39.132Z,97588.09
2023-04-09T03:30:00.793Z,97577.41
2023-04-09T03:35:29.513Z,97579.31
2023-04-09T03:40:53.074Z,97577.47
2023-04-09T03:46:17.859Z,97563.06
2023-04-09T03:51:41.631Z,97559.66
2023-04-09T03:57:04.542Z,97557.72
2023-04-09T04:02:27.350Z,97558.47
2023-04-09T04:07:56.010Z,97560.16
2023-04-09T04:13:21.454Z,97565.06
2023-04-09T04:18:49.154Z,97571.31
2023-04-09T04:24:11.665Z,97563.56
2023-04-09T04:29:33.320Z,97570.78
2023-04-09T04:34:55.772Z,97581.06
2023-04-09T04:40:19.837Z,97582.13
2023-04-09T04:45:44.080Z,97580.28
2023-04-09T04:51:06.271Z,97571.13
2023-04-09T04:56:34.594Z,97569.16
2023-04-09T05:02:02.678Z,97568.75
2023-04-09T05:07:27.294Z,97587.72
2023-04-09T05:12:50.660Z,97587.22
2023-04-09T05:18:29.068Z,97599.72
2023-04-09T05:23:49.881Z,97592.72
2023-04-09T05:29:10.500Z,97595.31
2023-04-09T05:34:31.447Z,97612.38
2023-04-09T05:39:52.194Z,97600.47
2023-04-09T05:45:13.021Z,97613.22
2023-04-09T05:50:53.866Z,97613.22
2023-04-09T05:56:18.475Z,97620.53
2023-04-09T06:01:45.480Z,97615.69
2023-04-09T06:07:06.483Z,97608.84
2023-04-09T06:12:27.141Z,97619.38
2023-04-09T06:17:47.921Z,97615.13
2023-04-09T06:23:08.609Z,97630.22
2023-04-09T06:28:29.859Z,97628.09
2023-04-09T06:33:50.889Z,97628.88
2023-04-09T06:39:11.897Z,97637.66
2023-04-09T06:44:34.252Z,97637.53
2023-04-09T06:49:54.883Z,97636.75
2023-04-09T06:55:15.633Z,97636.91
2023-04-09T07:00:36.326Z,97645.47
2023-04-09T07:05:57.839Z,97647.63
2023-04-09T07:11:18.561Z,97655.84
2023-04-09T07:16:39.677Z,97656.53
2023-04-09T07:22:00.591Z,97666.59
2023-04-09T07:27:25.886Z,97668.47
2023-04-09T07:32:47.309Z,97666.84
2023-04-09T07:38:08.098Z,97664.28
2023-04-09T07:43:28.884Z,97666.84
2023-04-09T07:48:50.393Z,97672.03
2023-04-09T07:54:11.945Z,97679.78
2023-04-09T07:59:35.122Z,97672.13
2023-04-09T08:04:55.972Z,97672.47
2023-04-09T08:10:16.989Z,97680.63
2023-04-09T08:15:38.000Z,97670.88
2023-04-09T08:20:58.589Z,97669.16
2023-04-09T08:26:19.228Z,97675.66
2023-04-09T08:31:39.980Z,97682.81
2023-04-09T08:37:00.742Z,97683.59
2023-04-09T08:42:24.100Z,97672.88
2023-04-09T08:47:47.096Z,97697.03
2023-04-09T08:53:09.659Z,97692.34
2023-04-09T08:58:30.314Z,97685.22
2023-04-09T09:04:01.424Z,97677.88
2023-04-09T09:09:22.444Z,97677.59
2023-04-09T09:14:43.256Z,97686.41
2023-04-09T09:20:20.664Z,97686.31
2023-04-09T09:25:42.407Z,97696.41
2023-04-09T09:31:11.082Z,97701.66
2023-04-09T09:36:33.936Z,97704.97
2023-04-09T09:42:07.884Z,97711.03
2023-04-09T09:47:29.887Z,97703.13
2023-04-09T09:52:54.436Z,97705.09
2023-04-09T09:58:24.980Z,97706.03
2023-04-09T10:03:47.151Z,97704.16
2023-04-09T10:09:08.092Z,97702.31
2023-04-09T10:14:29.481Z,97694.66
2023-04-09T10:20:16.496Z,97697.56
2023-04-09T10:25:37.156Z,97688.19
2023-04-09T10:30:59.265Z,97686.56
2023-04-09T10:36:22.376Z,97678.78
2023-04-09T10:41:44.880Z,97675.84
2023-04-09T10:47:06.337Z,97673.84
2023-04-09T10:52:30.577Z,97667.31
2023-04-09T10:57:51.522Z,97668.03
2023-04-09T11:03:32.506Z,97667.63
2023-04-09T11:08:53.696Z,97662.66
2023-04-09T11:14:20.458Z,97660.88
2023-04-09T11:19:41.368Z,97657.13
2023-04-09T11:25:03.069Z,97659.66
2023-04-09T11:30:24.252Z,97660.69
2023-04-09T11:35:45.325Z,97660.69
2023-04-09T11:41:06.343Z,97664.00
2023-04-09T11:46:27.614Z,97662.84
2023-04-09T11:51:48.458Z,97664.41
2023-04-09T11:57:09.237Z,97667.75
2023-04-09T12:02:30.282Z,97666.63
2023-04-09T12:13:16.801Z,97673.03
2023-04-09T12:18:40.038Z,97669.22
2023-04-09T12:24:01.277Z,97664.63
2023-04-09T12:29:22.595Z,97666.50
2023-04-09T12:34:43.871Z,97665.56
2023-04-09T12:40:05.182Z,97664.75
2023-04-09T12:45:26.415Z,97664.81
2023-04-09T12:50:47.764Z,97661.53
2023-04-09T12:56:08.969Z,97658.19
2023-04-09T13:01:29.944Z,97660.47
2023-04-09T13:06:50.548Z,97654.22
2023-04-09T13:12:14.776Z,97656.22
2023-04-09T13:17:35.810Z,97649.56
2023-04-09T13:22:57.293Z,97643.41
2023-04-09T13:28:17.990Z,97648.09
2023-04-09T13:33:38.733Z,97645.91
2023-04-09T13:39:04.566Z,97648.91
2023-04-09T13:44:26.767Z,97645.81
2023-04-09T13:49:47.672Z,97638.22
2023-04-09T13:55:09.087Z,97639.03
2023-04-09T14:00:31.786Z,97643.13
2023-04-09T14:05:52.817Z,97644.56
2023-04-09T14:11:18.210Z,97651.19
2023-04-09T14:16:38.911Z,97641.88
2023-04-09T14:21:59.573Z,97642.06
2023-04-09T14:27:20.403Z,97641.63
2023-04-09T14:32:41.183Z,97636.84
2023-04-09T14:38:04.509Z,97628.72
2023-04-09T14:43:25.647Z,97626.00
2023-04-09T14:48:46.615Z,97624.75
2023-04-09T14:54:07.454Z,97630.19
2023-04-09T14:59:28.459Z,97626.66
2023-04-09T15:04:49.395Z,97627.19
2023-04-09T15:10:10.718Z,97619.69
2023-04-09T15:15:32.294Z,97622.25
2023-04-09T15:20:52.950Z,97624.06
2023-04-09T15:26:13.680Z,97626.56
2023-04-09T15:31:34.511Z,97621.81
2023-04-09T15:36:55.099Z,97617.63
2023-04-09T15:42:20.345Z,97623.34
2023-04-09T15:47:41.144Z,97620.84
2023-04-09T15:53:01.845Z,97615.13
2023-04-09T15:58:22.648Z,97618.78
2023-04-09T16:03:43.349Z,97615.13
2023-04-09T16:09:04.157Z,97619.75
2023-04-09T16:14:24.686Z,97624.75
2023-04-09T16:19:45.403Z,97623.22
2023-04-09T16:25:06.765Z,97634.22
2023-04-09T16:30:27.579Z,97632.78
2023-04-09T16:35:48.374Z,97636.00
2023-04-09T16:41:09.353Z,97634.34
2023-04-09T16:46:30.170Z,97621.16
2023-04-09T16:51:53.136Z,97628.47
2023-04-09T16:57:14.766Z,97627.81
2023-04-09T17:02:36.784Z,97625.00
2023-04-09T17:07:57.774Z,97620.34
2023-04-09T17:13:18.398Z,97622.81
2023-04-09T17:18:39.224Z,97634.88
2023-04-09T17:24:01.960Z,97635.00
2023-04-09T17:29:23.298Z,97627.94
2023-04-09T17:34:47.465Z,97642.00
2023-04-09T17:40:08.886Z,97638.34
2023-04-09T17:45:29.981Z,97643.00
2023-04-09T17:50:50.731Z,97644.16
2023-04-09T17:56:18.089Z,97661.22
2023-04-09T18:01:38.837Z,97663.69
2023-04-09T18:06:59.548Z,97674.06
2023-04-09T18:12:20.181Z,97668.63
2023-04-09T18:17:42.245Z,97667.38
2023-04-09T18:23:03.207Z,97679.22
2023-04-09T18:28:23.957Z,97682.50
2023-04-09T18:33:44.779Z,97690.53
2023-04-09T18:39:05.618Z,97698.53
2023-04-09T18:44:26.384Z,97700.13
2023-04-09T18:49:47.494Z,97701.41
2023-04-09T18:55:08.937Z,97701.09
2023-04-09T19:00:30.095Z,97701.94
2023-04-09T19:05:51.466Z,97696.66
2023-04-09T19:11:14.395Z,97691.56
2023-04-09T19:16:35.644Z,97696.16
2023-04-09T19:21:56.305Z,97688.66
2023-04-09T19:27:18.156Z,97692.00
2023-04-09T19:32:39.197Z,97684.03
2023-04-09T19:38:01.565Z,97683.72
2023-04-09T19:43:23.782Z,97681.03
2023-04-09T19:48:44.837Z,97675.59
2023-04-09T19:54:05.806Z,97677.50
2023-04-09T19:59:27.208Z,97681.59
2023-04-09T20:04:47.932Z,97689.31
2023-04-09T20:10:10.454Z,97688.19
2023-04-09T20:15:31.536Z,97693.19
2023-04-09T20:20:53.234Z,97688.31
2023-04-09T20:26:14.036Z,97687.75
2023-04-09T20:31:36.154Z,97691.16
2023-04-09T20:36:57.689Z,97682.25
2023-04-09T20:42:18.398Z,97682.06
2023-04-09T20:47:39.192Z,97685.47
2023-04-09T20:53:00.086Z,97689.50
2023-04-09T20:58:21.312Z,97685.72
2023-04-09T21:03:42.324Z,97684.78
2023-04-09T21:09:03.184Z,97686.31
2023-04-09T21:14:23.877Z,97685.41
2023-04-09T21:19:44.635Z,97688.72
2023-04-09T21:25:06.100Z,97694.38
2023-04-09T21:30:27.811Z,97690.47
2023-04-09T21:35:52.207Z,97691.31
2023-04-09T21:41:13.116Z,97697.34
2023-04-09T21:46:36.412Z,97695.81
2023-04-09T21:51:59.274Z,97696.75
2023-04-09T21:57:20.560Z,97699.97
2023-04-09T22:02:42.012Z,97710.69
2023-04-09T22:08:03.027Z,97708.22
2023-04-09T22:13:23.831Z,97710.47
2023-04-09T22:18:45.249Z,97713.56
2023-04-09T22:24:06.505Z,97711.03
2023-04-09T22:29:28.458Z,97708.56
2023-04-09T22:34:49.212Z,97713.63
2023-04-09T22:40:14.380Z,97718.31
2023-04-09T22:45:34.928Z,97713.47
2023-04-09T22:50:57.982Z,97722.81
2023-04-09T22:56:19.723Z,97722.00
2023-04-09T23:01:40.748Z,97718.75
2023-04-09T23:07:02.363Z,97713.44
2023-04-09T23:12:23.146Z,97721.34
2023-04-09T23:17:44.020Z,97712.41
2023-04-09T23:23:04.871Z,97709.81
2023-04-09T23:28:25.943Z,97704.44
2023-04-09T23:33:46.855Z,97703.88
2023-04-09T23:39:07.421Z,97709.72
2023-04-09T23:44:28.101Z,97708.00
2023-04-09T23:49:48.776Z,97705.22
2023-04-09T23:55:10.820Z,97701.59
